createdAt,value
2022-10-20T00:04:37.792Z,99.90
2022-10-20T00:07:28.046Z,99.30
2022-10-20T00:10:17.743Z,99.80
2022-10-20T00:13:06.471Z,99.90
2022-10-20T00:15:56.915Z,99.80
2022-10-20T00:18:46.199Z,99.60
2022-10-20T00:21:35.403Z,98.70
2022-10-20T00:24:25.433Z,99.00
2022-10-20T00:27:14.012Z,98.80
2022-10-20T00:30:02.700Z,97.90
2022-10-20T00:32:51.220Z,97.70
2022-10-20T00:35:40.355Z,97.40
2022-10-20T00:38:29.125Z,98.30
2022-10-20T00:41:21.331Z,98.30
2022-10-20T00:44:43.391Z,98.80
2022-10-20T00:47:39.271Z,98.30
2022-10-20T00:50:30.842Z,97.00
2022-10-20T00:53:20.133Z,95.50
2022-10-20T00:56:09.215Z,95.60
2022-10-20T00:58:59.367Z,95.40
2022-10-20T01:01:48.699Z,95.10
2022-10-20T01:04:38.390Z,94.80
2022-10-20T01:07:26.969Z,93.80
2022-10-20T01:10:15.866Z,93.90
2022-10-20T01:13:09.381Z,94.40
2022-10-20T01:16:07.895Z,94.90
2022-10-20T01:19:03.807Z,95.70
2022-10-20T01:22:12.767Z,96.60
2022-10-20T01:25:17.851Z,98.00
2022-10-20T01:28:13.602Z,98.20
2022-10-20T01:31:06.869Z,98.70
2022-10-20T01:34:03.373Z,99.10
2022-10-20T01:36:57.533Z,99.10
2022-10-20T01:39:50.720Z,99.90
2022-10-20T01:42:42.114Z,99.90
2022-10-20T01:45:35.634Z,99.90
2022-10-20T01:48:27.835Z,99.90
2022-10-20T01:51:16.442Z,99.90
2022-10-20T01:54:05.142Z,99.90
2022-10-20T01:57:13.734Z,99.90
2022-10-20T02:00:07.059Z,99.90
2022-10-20T02:03:25.949Z,98.90
2022-10-20T02:06:25.932Z,97.70
2022-10-20T02:09:19.133Z,97.10
2022-10-20T02:12:10.970Z,97.40
2022-10-20T02:15:00.883Z,97.90
2022-10-20T02:17:53.441Z,98.10
2022-10-20T02:20:48.211Z,98.20
2022-10-20T02:23:40.677Z,98.40
2022-10-20T02:26:30.818Z,99.10
2022-10-20T02:29:23.964Z,99.10
2022-10-20T02:32:13.730Z,98.70
2022-10-20T02:35:06.647Z,99.00
2022-10-20T02:37:57.848Z,99.00
2022-10-20T02:40:46.757Z,98.60
2022-10-20T02:43:35.309Z,98.70
2022-10-20T02:46:24.374Z,99.20
2022-10-20T02:49:12.900Z,98.30
2022-10-20T02:52:01.498Z,97.50
2022-10-20T02:54:51.457Z,97.80
2022-10-20T02:57:40.080Z,98.30
2022-10-20T03:00:31.111Z,98.20
2022-10-20T03:03:20.243Z,98.30
2022-10-20T03:06:10.853Z,98.50
2022-10-20T03:08:59.444Z,98.30
2022-10-20T03:11:49.405Z,97.50
2022-10-20T03:14:37.977Z,97.30
2022-10-20T03:17:26.511Z,97.40
2022-10-20T03:20:15.080Z,97.20
2022-10-20T03:23:03.649Z,97.80
2022-10-20T03:25:52.176Z,97.70
2022-10-20T03:28:42.237Z,97.10
2022-10-20T03:31:31.021Z,97.70
2022-10-20T03:34:19.587Z,97.60
2022-10-20T03:37:08.164Z,97.60
2022-10-20T03:39:56.710Z,97.70
2022-10-20T03:42:45.267Z,97.80
2022-10-20T03:45:35.315Z,97.80
2022-10-20T03:48:23.884Z,97.90
2022-10-20T03:51:14.684Z,97.90
2022-10-20T03:54:03.248Z,98.30
2022-10-20T03:56:51.772Z,98.60
2022-10-20T03:59:40.437Z,99.10
2022-10-20T04:02:35.657Z,99.20
2022-10-20T04:05:24.496Z,99.40
2022-10-20T04:11:01.602Z,99.30
2022-10-20T04:13:50.133Z,99.40
2022-10-20T04:16:38.738Z,99.30
2022-10-20T04:19:28.641Z,98.90
2022-10-20T04:22:17.650Z,98.60
2022-10-20T04:25:06.991Z,99.20
2022-10-20T04:27:55.485Z,99.50
2022-10-20T04:30:44.807Z,99.20
2022-10-20T04:33:33.632Z,99.60
2022-10-20T04:36:23.637Z,99.90
2022-10-20T04:39:12.211Z,99.90
2022-10-20T04:42:00.978Z,99.90
2022-10-20T04:44:49.527Z,99.90
2022-10-20T04:47:38.666Z,99.90
2022-10-20T04:50:27.636Z,99.90
2022-10-20T04:53:17.530Z,99.90
2022-10-20T04:56:07.242Z,99.90
2022-10-20T04:58:57.313Z,99.90
2022-10-20T05:01:45.951Z,99.90
2022-10-20T05:04:34.536Z,99.90
2022-10-20T05:07:23.096Z,99.90
2022-10-20T05:10:12.995Z,99.90
2022-10-20T05:13:01.535Z,99.90
2022-10-20T05:15:53.581Z,99.90
2022-10-20T05:18:42.362Z,99.90
2022-10-20T05:21:32.642Z,99.90
2022-10-20T05:24:22.780Z,99.90
2022-10-20T05:27:13.610Z,99.90
2022-10-20T05:30:03.125Z,99.90
2022-10-20T05:32:51.662Z,99.90
2022-10-20T05:35:40.234Z,99.90
2022-10-20T05:38:28.946Z,99.90
2022-10-20T05:41:19.483Z,99.90
2022-10-20T05:44:10.010Z,99.90
2022-10-20T05:46:58.516Z,99.90
2022-10-20T05:49:47.031Z,99.90
2022-10-20T05:52:36.710Z,99.90
2022-10-20T05:55:25.546Z,99.90
2022-10-20T05:58:14.086Z,99.90
2022-10-20T06:01:16.706Z,99.90
2022-10-20T06:04:05.582Z,99.90
2022-10-20T06:06:54.917Z,99.90
2022-10-20T06:09:43.457Z,99.90
2022-10-20T06:12:32.005Z,99.90
2022-10-20T06:15:20.550Z,99.90
2022-10-20T06:18:10.479Z,99.90
2022-10-20T06:21:03.873Z,99.90
2022-10-20T06:23:53.246Z,99.90
2022-10-20T06:26:42.319Z,99.90
2022-10-20T06:29:30.847Z,99.50
2022-10-20T06:32:19.476Z,98.80
2022-10-20T06:35:09.857Z,98.70
2022-10-20T06:37:58.642Z,98.70
2022-10-20T06:40:47.425Z,99.00
2022-10-20T06:43:36.158Z,99.40
2022-10-20T06:46:24.768Z,99.10
2022-10-20T06:49:14.194Z,99.20
2022-10-20T06:52:04.294Z,98.80
2022-10-20T06:54:53.475Z,97.20
2022-10-20T06:57:42.530Z,98.50
2022-10-20T07:03:24.629Z,98.60
2022-10-20T07:06:18.249Z,98.00
2022-10-20T07:09:12.678Z,98.00
2022-10-20T07:12:01.310Z,95.20
2022-10-20T07:14:50.878Z,95.40
2022-10-20T07:17:39.449Z,96.00
2022-10-20T07:20:27.998Z,97.70
2022-10-20T07:23:16.645Z,96.80
2022-10-20T07:26:08.689Z,96.60
2022-10-20T07:28:59.535Z,96.90
2022-10-20T07:31:49.114Z,95.50
2022-10-20T07:34:37.680Z,95.90
2022-10-20T07:37:26.289Z,95.70
2022-10-20T07:40:14.962Z,96.00
2022-10-20T07:43:05.030Z,97.20
2022-10-20T07:45:53.559Z,94.70
2022-10-20T07:48:42.581Z,96.70
2022-10-20T07:51:33.108Z,93.10
2022-10-20T07:54:21.712Z,93.20
2022-10-20T07:57:10.269Z,94.40
2022-10-20T08:00:00.240Z,93.30
2022-10-20T08:02:48.812Z,93.10
2022-10-20T08:05:37.339Z,93.30
2022-10-20T08:08:26.009Z,90.70
2022-10-20T08:11:15.101Z,91.20
2022-10-20T08:14:03.763Z,92.90
2022-10-20T08:17:06.694Z,94.50
2022-10-20T08:20:02.427Z,95.00
2022-10-20T08:22:51.041Z,96.70
2022-10-20T08:25:39.768Z,97.20
2022-10-20T08:28:28.302Z,97.60
2022-10-20T08:31:16.894Z,98.20
2022-10-20T08:34:08.203Z,97.70
2022-10-20T08:36:56.745Z,96.30
2022-10-20T08:39:45.277Z,93.00
2022-10-20T08:42:45.128Z,94.80
2022-10-20T08:45:38.359Z,90.60
2022-10-20T08:48:30.664Z,93.00
2022-10-20T08:51:23.769Z,91.50
2022-10-20T08:54:15.451Z,88.80
2022-10-20T08:57:04.057Z,90.90
2022-10-20T08:59:54.561Z,87.50
2022-10-20T09:02:43.641Z,89.90
2022-10-20T09:05:35.117Z,85.50
2022-10-20T09:08:29.827Z,89.40
2022-10-20T09:11:23.256Z,87.80
2022-10-20T09:14:13.348Z,85.20
2022-10-20T09:17:02.171Z,83.30
2022-10-20T09:19:55.687Z,86.60
2022-10-20T09:22:44.435Z,88.60
2022-10-20T09:25:36.090Z,83.70
2022-10-20T09:28:29.262Z,88.40
2022-10-20T09:31:24.631Z,89.50
2022-10-20T09:34:24.440Z,87.80
2022-10-20T09:37:14.892Z,91.90
2022-10-20T09:40:05.195Z,88.70
2022-10-20T09:42:58.156Z,92.30
2022-10-20T09:45:53.947Z,93.20
2022-10-20T09:48:47.930Z,96.00
2022-10-20T09:51:36.706Z,94.40
2022-10-20T09:54:27.170Z,94.10
2022-10-20T09:57:19.818Z,93.80
2022-10-20T10:00:36.729Z,94.40
2022-10-20T10:03:26.496Z,94.60
2022-10-20T10:06:28.183Z,94.50
2022-10-20T10:09:31.237Z,95.10
2022-10-20T10:12:20.911Z,96.40
2022-10-20T10:15:28.028Z,97.10
2022-10-20T10:18:23.916Z,98.30
2022-10-20T10:21:15.615Z,99.80
2022-10-20T10:24:05.648Z,99.00
2022-10-20T10:26:56.699Z,99.80
2022-10-20T10:29:45.271Z,99.80
2022-10-20T10:32:44.524Z,99.90
2022-10-20T10:35:38.514Z,99.90
2022-10-20T10:38:27.591Z,99.90
2022-10-20T10:41:25.285Z,99.90
2022-10-20T10:44:20.827Z,99.90
2022-10-20T10:47:25.375Z,99.90
2022-10-20T10:50:32.204Z,99.90
2022-10-20T10:53:32.132Z,99.90
2022-10-20T10:56:30.652Z,98.40
2022-10-20T10:59:23.634Z,99.10
2022-10-20T11:03:02.622Z,99.60
2022-10-20T11:06:11.820Z,99.50
2022-10-20T11:09:13.785Z,97.20
2022-10-20T11:12:26.938Z,98.40
2022-10-20T11:15:29.129Z,99.30
2022-10-20T11:18:45.730Z,98.90
2022-10-20T11:21:43.277Z,98.00
2022-10-20T11:24:47.136Z,96.20
2022-10-20T11:27:38.010Z,92.20
2022-10-20T11:30:27.550Z,93.50
2022-10-20T11:33:19.977Z,97.40
2022-10-20T11:36:16.971Z,94.40
2022-10-20T11:39:12.867Z,95.90
2022-10-20T11:42:11.525Z,94.20
2022-10-20T11:45:02.944Z,94.60
2022-10-20T11:47:56.470Z,94.90
2022-10-20T11:50:55.334Z,96.90
2022-10-20T11:54:06.335Z,96.30
2022-10-20T11:57:13.328Z,96.60
2022-10-20T12:03:42.790Z,97.30
2022-10-20T12:07:02.573Z,99.90
2022-10-20T12:10:24.861Z,99.90
2022-10-20T12:13:26.224Z,99.90
2022-10-20T12:16:34.928Z,99.90
2022-10-20T12:19:24.800Z,99.90
2022-10-20T12:22:43.646Z,99.90
2022-10-20T12:25:41.370Z,99.90
2022-10-20T12:28:43.472Z,99.90
2022-10-20T12:32:05.200Z,99.90
2022-10-20T12:34:55.311Z,99.90
2022-10-20T12:37:46.345Z,99.90
2022-10-20T12:40:45.087Z,99.90
2022-10-20T12:43:46.961Z,99.90
2022-10-20T12:46:42.654Z,99.90
2022-10-20T12:49:34.234Z,99.90
2022-10-20T12:52:28.609Z,99.90
2022-10-20T12:55:21.263Z,99.90
2022-10-20T12:58:26.512Z,99.90
2022-10-20T13:01:15.089Z,99.90
2022-10-20T13:07:57.948Z,99.90
2022-10-20T13:10:47.178Z,99.90
2022-10-20T13:13:51.583Z,99.90
2022-10-20T13:16:42.265Z,99.90
2022-10-20T13:19:39.889Z,99.90
2022-10-20T13:22:45.291Z,99.90
2022-10-20T13:25:38.485Z,99.90
2022-10-20T13:28:29.111Z,99.90
2022-10-20T13:31:26.198Z,99.90
2022-10-20T13:34:21.145Z,99.90
2022-10-20T13:37:22.739Z,99.90
2022-10-20T13:40:24.054Z,99.90
2022-10-20T13:43:31.638Z,99.90
2022-10-20T13:46:35.567Z,99.90
2022-10-20T13:49:41.935Z,99.90
2022-10-20T13:52:34.829Z,99.90
2022-10-20T13:55:27.274Z,99.90
2022-10-20T13:58:22.618Z,99.90
2022-10-20T14:01:19.434Z,99.90
2022-10-20T14:04:25.671Z,99.90
2022-10-20T14:07:16.105Z,99.90
2022-10-20T14:10:05.394Z,99.90
2022-10-20T14:12:56.856Z,99.90
2022-10-20T14:15:49.822Z,99.90
2022-10-20T14:18:40.133Z,99.90
2022-10-20T14:21:28.933Z,99.90
2022-10-20T14:24:24.881Z,99.90
2022-10-20T14:27:18.496Z,99.90
2022-10-20T14:30:15.222Z,99.90
2022-10-20T14:33:04.060Z,99.90
2022-10-20T14:35:54.994Z,99.90
2022-10-20T14:38:49.578Z,99.90
2022-10-20T14:41:38.349Z,99.90
2022-10-20T14:44:31.807Z,99.90
2022-10-20T14:47:22.578Z,99.90
2022-10-20T14:50:21.909Z,99.90
2022-10-20T14:53:29.128Z,99.90
2022-10-20T14:56:25.966Z,99.90
2022-10-20T14:59:16.088Z,99.90
2022-10-20T15:02:10.045Z,99.90
2022-10-20T15:05:24.352Z,99.90
2022-10-20T15:08:21.880Z,99.90
2022-10-20T15:11:23.431Z,99.90
2022-10-20T15:14:17.206Z,99.90
2022-10-20T15:17:05.758Z,99.90
2022-10-20T15:19:54.330Z,99.90
2022-10-20T15:22:45.146Z,99.90
2022-10-20T15:25:41.892Z,99.90
2022-10-20T15:28:34.866Z,99.90
2022-10-20T15:31:25.711Z,99.90
2022-10-20T15:34:14.342Z,99.90
2022-10-20T15:37:02.991Z,99.90
2022-10-20T15:39:52.957Z,99.90
2022-10-20T15:42:41.515Z,99.90
2022-10-20T15:45:36.135Z,99.90
2022-10-20T15:48:26.102Z,99.90
2022-10-20T15:51:18.452Z,99.90
2022-10-20T15:54:07.542Z,99.90
2022-10-20T15:56:57.473Z,99.90
2022-10-20T15:59:46.063Z,99.90
2022-10-20T16:02:34.866Z,99.90
2022-10-20T16:05:25.256Z,99.90
2022-10-20T16:11:04.482Z,99.90
2022-10-20T16:13:54.373Z,99.90
2022-10-20T16:16:44.844Z,99.90
2022-10-20T16:19:33.495Z,99.90
2022-10-20T16:22:22.197Z,99.90
2022-10-20T16:25:11.653Z,99.90
2022-10-20T16:28:00.171Z,99.90
2022-10-20T16:30:50.152Z,99.90
2022-10-20T16:33:38.816Z,99.90
2022-10-20T16:36:27.336Z,99.90
2022-10-20T16:39:17.358Z,99.90
2022-10-20T16:42:05.922Z,99.90
2022-10-20T16:44:54.478Z,99.90
2022-10-20T16:47:44.401Z,99.90
2022-10-20T16:50:33.055Z,99.90
2022-10-20T16:53:23.740Z,99.90
2022-10-20T16:56:15.386Z,99.90
2022-10-20T16:59:06.912Z,99.90
2022-10-20T17:01:55.988Z,99.90
2022-10-20T17:04:49.439Z,99.90
2022-10-20T17:07:38.526Z,99.90
2022-10-20T17:10:27.569Z,99.90
2022-10-20T17:13:16.103Z,99.90
2022-10-20T17:16:06.554Z,99.90
2022-10-20T17:18:55.302Z,99.90
2022-10-20T17:21:45.520Z,99.90
2022-10-20T17:24:34.253Z,99.90
2022-10-20T17:27:22.790Z,99.90
2022-10-20T17:30:13.985Z,99.90
2022-10-20T17:33:02.538Z,99.90
2022-10-20T17:35:51.084Z,99.90
2022-10-20T17:38:42.591Z,99.90
2022-10-20T17:41:31.417Z,99.90
2022-10-20T17:44:19.990Z,99.90
2022-10-20T17:47:08.536Z,99.90
2022-10-20T17:49:57.118Z,99.90
2022-10-20T17:52:46.263Z,99.90
2022-10-20T17:55:36.239Z,99.90
2022-10-20T17:58:24.839Z,99.90
2022-10-20T18:01:15.206Z,99.90
2022-10-20T18:04:06.558Z,99.90
2022-10-20T18:06:55.069Z,99.90
2022-10-20T18:09:44.050Z,99.90
2022-10-20T18:12:34.170Z,99.90
2022-10-20T18:15:22.857Z,99.90
2022-10-20T18:18:11.416Z,99.90
2022-10-20T18:20:59.998Z,99.90
2022-10-20T18:23:48.938Z,99.90
2022-10-20T18:26:38.109Z,99.90
2022-10-20T18:29:28.059Z,99.90
2022-10-20T18:32:16.591Z,99.90
2022-10-20T18:35:05.521Z,99.90
2022-10-20T18:37:57.534Z,99.90
2022-10-20T18:40:46.112Z,99.90
2022-10-20T18:43:34.663Z,99.90
2022-10-20T18:46:24.660Z,99.90
2022-10-20T18:49:14.767Z,99.90
2022-10-20T18:52:03.488Z,99.90
2022-10-20T18:54:52.034Z,99.90
2022-10-20T18:57:41.024Z,99.90
2022-10-20T19:00:30.812Z,99.90
2022-10-20T19:03:20.720Z,99.90
2022-10-20T19:06:12.211Z,99.90
2022-10-20T19:09:02.951Z,99.90
2022-10-20T19:11:51.808Z,99.90
2022-10-20T19:14:40.393Z,99.90
2022-10-20T19:17:28.925Z,99.90
2022-10-20T19:20:19.038Z,99.90
2022-10-20T19:23:07.565Z,99.90
2022-10-20T19:26:07.593Z,99.90
2022-10-20T19:28:59.647Z,99.90
2022-10-20T19:31:51.137Z,99.90
2022-10-20T19:34:41.341Z,99.90
2022-10-20T19:37:31.262Z,99.90
2022-10-20T19:40:19.853Z,99.90
2022-10-20T19:43:08.386Z,99.90
2022-10-20T19:45:56.965Z,99.90
2022-10-20T19:48:46.771Z,99.90
2022-10-20T19:51:35.613Z,99.90
2022-10-20T19:54:25.763Z,99.90
2022-10-20T19:57:14.353Z,99.90
2022-10-20T20:00:02.927Z,99.90
2022-10-20T20:02:51.477Z,99.90
2022-10-20T20:05:40.168Z,99.90
2022-10-20T20:08:28.851Z,99.90
2022-10-20T20:11:23.899Z,99.90
2022-10-20T20:14:15.393Z,99.90
2022-10-20T20:17:06.219Z,99.90
2022-10-20T20:19:56.017Z,99.90
2022-10-20T20:22:44.520Z,99.90
2022-10-20T20:25:37.348Z,99.90
2022-10-20T20:28:27.266Z,99.90
2022-10-20T20:31:15.844Z,99.90
2022-10-20T20:34:04.416Z,99.90
2022-10-20T20:36:52.981Z,99.90
2022-10-20T20:39:41.469Z,99.90
2022-10-20T20:42:30.018Z,99.90
2022-10-20T20:45:20.028Z,99.90
2022-10-20T20:48:08.646Z,99.90
2022-10-20T20:50:58.542Z,99.90
2022-10-20T20:53:47.087Z,99.90
2022-10-20T20:56:35.688Z,99.90
2022-10-20T20:59:24.308Z,99.90
2022-10-20T21:02:14.293Z,99.90
2022-10-20T21:05:02.889Z,99.90
2022-10-20T21:07:51.417Z,99.90
2022-10-20T21:10:39.983Z,99.90
2022-10-20T21:13:28.508Z,99.90
2022-10-20T21:16:20.253Z,99.90
2022-10-20T21:19:11.472Z,99.90
2022-10-20T21:22:01.463Z,99.90
2022-10-20T21:24:50.032Z,99.90
2022-10-20T21:27:38.634Z,99.90
2022-10-20T21:30:27.309Z,99.90
2022-10-20T21:33:15.903Z,99.90
2022-10-20T21:36:07.994Z,99.90
2022-10-20T21:38:57.088Z,99.90
2022-10-20T21:41:46.498Z,99.90
2022-10-20T21:44:35.030Z,99.90
2022-10-20T21:47:23.576Z,99.90
2022-10-20T21:50:12.184Z,99.90
2022-10-20T21:53:02.071Z,99.90
2022-10-20T21:55:50.601Z,99.90
2022-10-20T21:58:39.924Z,99.90
2022-10-20T22:01:28.599Z,99.90
2022-10-20T22:04:17.881Z,99.90
2022-10-20T22:07:06.427Z,99.90
2022-10-20T22:09:56.400Z,99.90
2022-10-20T22:12:44.985Z,99.90
2022-10-20T22:15:38.117Z,99.90
2022-10-20T22:18:26.739Z,99.90
2022-10-20T22:21:16.861Z,99.90
2022-10-20T22:24:05.878Z,99.90
2022-10-20T22:26:55.928Z,99.90
2022-10-20T22:29:44.461Z,99.90
2022-10-20T22:32:33.339Z,99.90
2022-10-20T22:35:21.891Z,99.90
2022-10-20T22:38:10.490Z,99.90
2022-10-20T22:40:59.996Z,99.90
2022-10-20T22:43:50.130Z,99.90
2022-10-20T22:46:38.753Z,99.90
2022-10-20T22:49:27.351Z,99.90
2022-10-20T22:52:15.901Z,99.90
2022-10-20T22:55:04.772Z,99.90
2022-10-20T22:57:54.017Z,99.90
2022-10-20T23:00:44.772Z,99.90
2022-10-20T23:03:33.381Z,99.90
2022-10-20T23:06:24.568Z,99.90
2022-10-20T23:09:13.133Z,99.90
2022-10-20T23:12:01.762Z,99.90
2022-10-20T23:14:50.282Z,99.90
2022-10-20T23:17:40.441Z,99.90
2022-10-20T23:20:29.088Z,99.90
2022-10-20T23:23:17.680Z,99.90
2022-10-20T23:26:07.299Z,99.90
2022-10-20T23:28:55.817Z,99.90
2022-10-20T23:31:44.386Z,99.90
2022-10-20T23:37:27.969Z,99.90
2022-10-20T23:40:16.607Z,99.90
2022-10-20T23:43:05.529Z,99.90
2022-10-20T23:45:54.045Z,99.90
2022-10-20T23:48:43.705Z,99.90
2022-10-20T23:51:33.772Z,99.90
2022-10-20T23:54:22.451Z,99.90
2022-10-20T23:57:11.022Z,99.90
2022-10-20T23:59:59.558Z,99.90
